createdAt,value
2022-11-22T00:00:46.672Z,9.07
2022-11-22T00:03:14.488Z,8.96
2022-11-22T00:05:42.295Z,9.15
2022-11-22T00:08:10.190Z,9.07
2022-11-22T00:10:39.436Z,9.23
2022-11-22T00:13:07.336Z,9.18
2022-11-22T00:15:35.195Z,9.14
2022-11-22T00:18:03.064Z,9.08
2022-11-22T00:20:30.876Z,8.88
2022-11-22T00:22:58.787Z,8.93
2022-11-22T00:25:26.746Z,8.72
2022-11-22T00:27:56.088Z,8.67
2022-11-22T00:30:23.914Z,8.61
2022-11-22T00:32:51.723Z,8.79
2022-11-22T00:35:19.568Z,8.53
2022-11-22T00:37:47.938Z,8.77
2022-11-22T00:40:16.532Z,8.82
2022-11-22T00:42:44.369Z,8.76
2022-11-22T00:45:13.700Z,8.64
2022-11-22T00:47:41.560Z,8.75
2022-11-22T00:50:11.210Z,8.87
2022-11-22T00:52:39.004Z,8.75
2022-11-22T00:55:07.834Z,8.72
2022-11-22T00:57:35.653Z,8.79
2022-11-22T01:00:03.513Z,8.70
2022-11-22T01:02:32.717Z,8.69
2022-11-22T01:05:00.546Z,8.73
2022-11-22T01:07:28.442Z,8.45
2022-11-22T01:09:56.320Z,8.50
2022-11-22T01:12:24.155Z,8.38
2022-11-22T01:14:51.976Z,8.30
2022-11-22T01:17:19.819Z,8.36
2022-11-22T01:19:48.994Z,8.29
2022-11-22T01:22:16.811Z,8.31
2022-11-22T01:24:44.715Z,8.33
2022-11-22T01:27:12.559Z,8.26
2022-11-22T01:29:40.444Z,8.18
2022-11-22T01:32:08.239Z,8.13
2022-11-22T01:34:36.801Z,8.10
2022-11-22T01:37:06.083Z,8.13
2022-11-22T01:39:33.997Z,8.06
2022-11-22T01:42:01.883Z,8.11
2022-11-22T01:44:30.895Z,7.98
2022-11-22T01:47:01.160Z,8.00
2022-11-22T01:49:33.146Z,8.06
2022-11-22T01:52:02.999Z,8.19
2022-11-22T01:54:35.170Z,8.13
2022-11-22T01:57:05.867Z,8.21
2022-11-22T01:59:34.891Z,8.08
2022-11-22T02:02:03.226Z,8.16
2022-11-22T02:04:32.356Z,8.32
2022-11-22T02:07:05.079Z,8.40
2022-11-22T02:09:34.364Z,8.44
2022-11-22T02:12:05.312Z,8.36
2022-11-22T02:14:33.384Z,8.26
2022-11-22T02:17:01.371Z,8.28
2022-11-22T02:19:38.813Z,8.34
2022-11-22T02:22:14.445Z,8.18
2022-11-22T02:24:47.826Z,8.31
2022-11-22T02:27:17.389Z,8.35
2022-11-22T08:45:46.702Z,10.51
2022-11-22T08:48:20.603Z,10.60
2022-11-22T08:50:52.150Z,10.66
2022-11-22T08:53:20.006Z,11.08
2022-11-22T08:55:48.061Z,11.32
2022-11-22T08:58:15.909Z,10.76
2022-11-22T09:00:43.869Z,10.93
2022-11-22T09:03:13.115Z,11.09
2022-11-22T09:08:31.312Z,11.07
2022-11-22T09:11:04.886Z,11.40
2022-11-22T09:13:33.483Z,11.31
2022-11-22T09:16:03.124Z,11.15
2022-11-22T09:18:32.617Z,11.22
2022-11-22T09:21:00.517Z,11.11
2022-11-22T09:23:28.558Z,11.25
2022-11-22T09:26:00.570Z,11.37
2022-11-22T09:28:29.023Z,11.45
2022-11-22T09:31:01.426Z,11.45
2022-11-22T09:33:29.327Z,11.19
2022-11-22T09:36:02.501Z,10.82
2022-11-22T09:38:30.985Z,10.92
2022-11-22T09:40:59.783Z,11.01
2022-11-22T09:43:36.358Z,11.29
2022-11-22T09:46:11.739Z,11.54
2022-11-22T09:48:49.755Z,11.26
2022-11-22T09:51:22.510Z,11.44
2022-11-22T09:53:54.119Z,11.64
2022-11-22T09:56:25.350Z,11.55
2022-11-22T09:58:55.422Z,11.35
2022-11-22T10:01:27.386Z,11.32
2022-11-22T10:03:59.884Z,11.69
2022-11-22T10:06:32.312Z,11.43
2022-11-22T10:09:07.775Z,11.43
2022-11-22T10:11:39.860Z,11.65
2022-11-22T10:14:16.110Z,11.53
2022-11-22T10:16:47.812Z,11.43
2022-11-22T10:19:18.786Z,11.62
2022-11-22T10:21:48.232Z,11.44
2022-11-22T10:24:19.401Z,11.35
2022-11-22T10:26:47.850Z,11.29
2022-11-22T10:29:31.086Z,11.85
2022-11-22T10:32:05.218Z,11.32
2022-11-22T10:34:42.390Z,11.88
2022-11-22T10:37:18.060Z,12.03
2022-11-22T10:40:02.857Z,12.30
2022-11-22T10:42:45.682Z,11.73
2022-11-22T10:45:17.780Z,12.02
2022-11-22T10:47:54.666Z,12.21
2022-11-22T10:50:25.624Z,12.30
2022-11-22T10:53:02.021Z,12.61
2022-11-22T10:55:43.425Z,12.32
2022-11-22T10:58:18.288Z,12.67
2022-11-22T11:00:48.421Z,12.88
2022-11-22T11:03:27.281Z,12.73
2022-11-22T11:11:40.325Z,12.82
2022-11-22T11:14:12.374Z,12.84
2022-11-22T11:16:40.800Z,13.10
2022-11-22T11:19:16.605Z,12.96
2022-11-22T11:21:44.583Z,13.01
2022-11-22T11:24:15.906Z,13.46
2022-11-22T11:26:45.345Z,13.72
2022-11-22T11:29:38.368Z,13.97
2022-11-22T11:32:14.541Z,13.66
2022-11-22T11:34:46.597Z,13.50
2022-11-22T11:37:23.804Z,13.66
2022-11-22T11:39:53.104Z,13.47
2022-11-22T11:42:26.539Z,13.50
2022-11-22T11:44:54.697Z,13.60
2022-11-22T11:47:33.942Z,13.80
2022-11-22T11:50:02.152Z,13.94
2022-11-22T11:52:31.557Z,13.64
2022-11-22T11:55:02.119Z,13.56
2022-11-22T11:57:31.955Z,13.53
2022-11-22T12:00:01.659Z,13.58
2022-11-22T12:02:34.688Z,13.47
2022-11-22T12:05:04.537Z,13.47
2022-11-22T12:07:41.267Z,13.41
2022-11-22T12:10:32.491Z,13.61
2022-11-22T12:13:04.961Z,13.70
2022-11-22T12:15:40.989Z,13.49
2022-11-22T12:18:21.130Z,13.78
2022-11-22T12:20:53.483Z,13.54
2022-11-22T12:23:25.445Z,13.66
2022-11-22T12:25:56.363Z,13.86
2022-11-22T12:28:25.556Z,13.87
2022-11-22T12:30:56.983Z,13.88
2022-11-22T12:33:29.888Z,13.95
2022-11-22T12:35:58.138Z,14.08
2022-11-22T12:38:30.092Z,13.95
2022-11-22T12:41:01.405Z,13.87
2022-11-22T12:43:31.832Z,13.90
2022-11-22T12:46:02.746Z,13.86
2022-11-22T12:48:35.535Z,13.99
2022-11-22T12:51:08.303Z,14.11
2022-11-22T12:53:37.615Z,14.06
2022-11-22T12:56:17.809Z,14.11
2022-11-22T12:58:51.126Z,13.69
2022-11-22T13:01:21.873Z,13.75
2022-11-22T13:03:52.005Z,13.70
2022-11-22T13:06:23.063Z,13.92
2022-11-22T13:09:03.197Z,13.87
2022-11-22T13:11:36.662Z,13.92
2022-11-22T13:14:08.823Z,13.81
2022-11-22T13:16:36.699Z,13.96
2022-11-22T13:19:05.933Z,13.98
2022-11-22T13:21:43.988Z,13.88
2022-11-22T13:24:48.444Z,13.94
2022-11-22T13:39:04.897Z,13.50
2022-11-22T13:41:40.165Z,13.51
2022-11-22T13:44:27.200Z,13.68
2022-11-22T13:47:00.156Z,13.53
2022-11-22T13:49:37.388Z,13.46
2022-11-22T13:52:28.353Z,13.45
2022-11-22T13:55:41.795Z,13.54
2022-11-22T13:58:52.559Z,13.49
2022-11-22T14:01:58.800Z,13.33
2022-11-22T14:04:44.787Z,13.51
2022-11-22T14:07:33.002Z,13.54
2022-11-22T14:10:01.968Z,13.41
2022-11-22T14:12:56.446Z,13.42
2022-11-22T14:15:31.995Z,13.42
2022-11-22T14:18:12.919Z,13.43
2022-11-22T14:20:45.331Z,13.54
2022-11-22T14:23:21.554Z,13.32
2022-11-22T14:25:59.140Z,13.49
2022-11-22T14:28:59.538Z,13.54
2022-11-22T14:31:29.684Z,13.47
2022-11-22T14:34:19.945Z,13.49
2022-11-22T14:37:25.994Z,13.32
2022-11-22T14:40:26.632Z,13.39
2022-11-22T14:42:56.540Z,13.29
2022-11-22T14:45:29.530Z,13.40
2022-11-22T14:48:03.235Z,13.21
2022-11-22T14:50:35.434Z,13.27
2022-11-22T14:53:10.464Z,13.22
2022-11-22T14:55:39.218Z,13.29
2022-11-22T14:58:09.468Z,13.25
2022-11-22T15:00:49.411Z,13.13
2022-11-22T15:03:49.341Z,13.49
2022-11-22T15:09:16.476Z,13.43
2022-11-22T15:09:49.045Z,13.45
2022-11-22T15:12:50.780Z,13.48
2022-11-22T15:58:13.689Z,13.32
2022-11-22T16:00:44.893Z,13.10
2022-11-22T16:03:23.074Z,13.18
2022-11-22T16:06:09.146Z,13.29
2022-11-22T16:08:39.091Z,13.19
2022-11-22T16:11:07.186Z,13.25
2022-11-22T16:13:36.964Z,13.01
2022-11-22T16:16:16.585Z,13.13
2022-11-22T16:18:44.968Z,13.20
2022-11-22T16:21:21.801Z,13.11
2022-11-22T16:24:11.493Z,12.80
2022-11-22T16:26:40.633Z,12.48
2022-11-22T16:29:17.270Z,12.96
2022-11-22T16:31:46.874Z,13.00
2022-11-22T16:34:15.548Z,12.98
2022-11-22T16:36:43.457Z,12.85
2022-11-22T16:39:11.305Z,13.07
2022-11-22T16:41:39.176Z,12.80
2022-11-22T16:44:12.646Z,13.00
2022-11-22T16:46:40.755Z,13.13
2022-11-22T16:49:17.057Z,13.19
2022-11-22T16:51:46.346Z,13.10
2022-11-22T16:54:15.428Z,12.63
2022-11-22T16:56:43.669Z,12.96
2022-11-22T16:59:12.970Z,12.90
2022-11-22T17:01:42.014Z,13.11
2022-11-22T17:04:20.423Z,12.92
2022-11-22T17:06:48.371Z,12.75
2022-11-22T17:09:16.246Z,13.09
2022-11-22T17:11:44.904Z,13.22
2022-11-22T17:14:14.758Z,13.17
2022-11-22T17:16:43.057Z,13.18
2022-11-22T17:22:00.819Z,13.19
2022-11-22T17:24:29.100Z,13.19
2022-11-22T17:26:57.271Z,13.22
2022-11-22T17:32:13.645Z,13.03
2022-11-22T17:34:41.565Z,13.15
2022-11-22T17:37:13.153Z,13.22
2022-11-22T17:39:41.565Z,13.19
2022-11-22T17:42:09.449Z,13.22
2022-11-22T17:44:37.275Z,13.06
2022-11-22T17:47:05.119Z,12.93
2022-11-22T17:49:33.276Z,13.14
2022-11-22T17:52:01.358Z,13.11
2022-11-22T17:54:30.565Z,13.15
2022-11-22T17:56:58.549Z,13.24
2022-11-22T17:59:26.416Z,13.22
2022-11-22T18:01:54.263Z,13.22
2022-11-22T18:04:22.088Z,13.19
2022-11-22T18:06:50.026Z,13.08
2022-11-22T18:09:17.815Z,13.01
2022-11-22T18:11:48.252Z,13.16
2022-11-22T18:14:16.207Z,13.01
2022-11-22T18:16:44.107Z,13.04
2022-11-22T18:19:12.024Z,13.03
2022-11-22T18:21:40.057Z,12.86
2022-11-22T18:24:08.575Z,13.02
2022-11-22T18:26:41.096Z,13.12
2022-11-22T18:29:54.314Z,13.14
2022-11-22T18:32:00.162Z,13.05
2022-11-22T18:34:28.536Z,13.14
2022-11-22T18:39:44.644Z,12.78
2022-11-22T18:42:14.787Z,13.01
2022-11-22T18:44:44.156Z,13.09
2022-11-22T18:47:11.990Z,13.11
2022-11-22T18:49:39.825Z,13.09
2022-11-22T18:52:09.702Z,13.01
2022-11-22T18:54:39.919Z,12.97
2022-11-22T18:57:07.775Z,12.78
2022-11-22T18:59:35.673Z,12.76
2022-11-22T19:02:04.952Z,12.79
2022-11-22T19:04:33.348Z,12.42
2022-11-22T19:07:01.466Z,12.82
2022-11-22T19:09:29.530Z,12.33
2022-11-22T19:11:58.751Z,12.61
2022-11-22T19:14:29.102Z,12.60
2022-11-22T19:16:57.371Z,12.63
2022-11-22T19:19:26.807Z,12.75
2022-11-22T19:21:54.717Z,12.72
2022-11-22T19:24:22.584Z,12.74
2022-11-22T19:26:50.386Z,12.87
2022-11-22T19:29:18.629Z,12.86
2022-11-22T19:31:46.813Z,12.85
2022-11-22T19:34:15.321Z,12.92
2022-11-22T19:36:44.653Z,12.95
2022-11-22T19:39:13.682Z,13.17
2022-11-22T19:41:42.128Z,13.02
2022-11-22T19:44:10.265Z,13.26
2022-11-22T19:46:38.803Z,13.35
2022-11-22T19:49:07.129Z,13.29
2022-11-22T19:51:36.225Z,13.25
2022-11-22T19:54:06.235Z,13.57
2022-11-22T19:56:35.272Z,13.68
2022-11-22T19:59:05.114Z,13.61
2022-11-22T20:01:34.610Z,13.37
2022-11-22T20:04:04.453Z,13.32
2022-11-22T20:06:33.198Z,13.10
2022-11-22T20:09:02.222Z,13.37
2022-11-22T20:11:31.626Z,13.43
2022-11-22T20:13:59.643Z,13.57
2022-11-22T20:16:29.367Z,13.43
2022-11-22T20:18:58.783Z,13.19
2022-11-22T20:21:28.289Z,13.44
2022-11-22T20:23:56.930Z,13.46
2022-11-22T20:26:25.811Z,13.32
2022-11-22T20:28:58.885Z,13.32
2022-11-22T20:31:27.827Z,13.31
2022-11-22T20:33:56.401Z,13.60
2022-11-22T20:36:25.836Z,13.35
2022-11-22T20:38:54.583Z,13.33
2022-11-22T20:41:23.702Z,13.44
2022-11-22T20:43:51.872Z,13.49
2022-11-22T20:46:22.475Z,13.42
2022-11-22T20:48:51.981Z,13.38
2022-11-22T20:51:21.717Z,13.36
2022-11-22T20:53:49.988Z,13.42
2022-11-22T20:56:18.334Z,13.32
2022-11-22T20:58:46.341Z,13.11
2022-11-22T21:01:16.109Z,13.33
2022-11-22T21:03:45.772Z,13.40
2022-11-22T21:06:14.682Z,13.42
2022-11-22T21:08:42.596Z,13.42
2022-11-22T21:11:13.189Z,13.51
2022-11-22T21:13:41.521Z,13.56
2022-11-22T21:16:22.249Z,13.71
2022-11-22T21:18:53.470Z,13.59
2022-11-22T21:21:23.742Z,13.60
2022-11-22T21:23:52.956Z,13.56
2022-11-22T21:26:20.873Z,13.60
2022-11-22T21:28:48.717Z,13.49
2022-11-22T21:31:17.123Z,13.30
2022-11-22T21:33:45.560Z,12.99
2022-11-22T21:36:15.074Z,13.12
2022-11-22T21:38:43.129Z,13.16
2022-11-22T21:41:38.667Z,13.01
2022-11-22T21:44:01.943Z,12.92
2022-11-22T21:46:29.812Z,12.74
2022-11-22T21:48:57.639Z,12.56
2022-11-22T21:51:27.014Z,12.40
2022-11-22T21:53:57.850Z,12.39
2022-11-22T21:56:25.922Z,12.39
2022-11-22T21:58:54.080Z,12.16
2022-11-22T22:01:22.101Z,12.23
2022-11-22T22:03:50.186Z,12.20
2022-11-22T22:06:18.179Z,12.14
2022-11-22T22:08:47.350Z,12.09
2022-11-22T22:11:15.452Z,12.02
2022-11-22T22:13:43.568Z,12.01
2022-11-22T22:16:15.617Z,12.18
2022-11-22T22:18:44.050Z,11.96
2022-11-22T22:21:13.397Z,11.84
2022-11-22T22:23:42.034Z,11.71
2022-11-22T22:26:13.274Z,11.66
2022-11-22T22:28:41.846Z,11.66
2022-11-22T22:31:11.154Z,11.55
2022-11-22T22:33:40.098Z,11.49
2022-11-22T22:36:09.640Z,11.45
2022-11-22T22:38:38.274Z,11.36
2022-11-22T22:41:06.895Z,11.34
2022-11-22T22:43:37.124Z,11.36
2022-11-22T22:46:06.642Z,11.42
2022-11-22T22:48:35.321Z,11.33
2022-11-22T22:51:07.728Z,11.23
2022-11-22T22:53:35.656Z,11.20
2022-11-22T22:56:03.546Z,11.10
2022-11-22T22:58:31.464Z,11.06
2022-11-22T23:01:07.267Z,11.29
2022-11-22T23:03:35.924Z,11.24
2022-11-22T23:06:08.783Z,11.19
2022-11-22T23:08:36.666Z,11.12
2022-11-22T23:11:06.328Z,11.18
2022-11-22T23:13:35.936Z,11.20
2022-11-22T23:16:04.236Z,11.19
2022-11-22T23:18:36.369Z,10.97
2022-11-22T23:21:06.380Z,10.88
2022-11-22T23:23:34.734Z,10.94
2022-11-22T23:26:03.173Z,11.07
2022-11-22T23:28:31.149Z,11.11
2022-11-22T23:31:05.278Z,11.16
2022-11-22T23:33:34.555Z,11.08
2022-11-22T23:36:04.298Z,11.07
2022-11-22T23:38:32.264Z,10.90
2022-11-22T23:41:00.157Z,10.87
2022-11-22T23:43:28.005Z,10.97
2022-11-22T23:45:55.958Z,10.94
2022-11-22T23:48:23.788Z,10.91
2022-11-22T23:50:53.017Z,10.95
2022-11-22T23:53:20.863Z,11.00
2022-11-22T23:55:48.780Z,11.09
2022-11-22T23:58:16.628Z,11.18
